FMEP/ZSE METAR and TAF weather

Enter ICAO airport designator
Station Type Date Time Source
FMEP METAR 2020/01/22 15:30 UTC NOAA

FMEP 221530Z AUTO 17011KT 5000 -RA BR SCT007/// BKN012/// BKN020/// ///TCU 26/25 Q1004


Station Type Date Time Source
FMEP Decoded METAR 2020/01/22 15:30 UTC NOAA

Saint-Pierre, Reunion (FMEP) 21-20S 055-29E 53M
Jan 22, 2020 - 10:30 AM EST / 2020.01.22 1530 UTC
Wind: from the S (170 degrees) at 13 MPH (11 KT):0
Visibility: 3 mile(s):0
Sky conditions: mostly cloudy
Weather: light rain; mist; Towering cumulus clouds observed
Temperature: 78 F (26 C)
Dew Point: 77 F (25 C)
Relative Humidity: 94%
Pressure (altimeter): 29.65 in. Hg (1004 hPa)
ob: FMEP 221530Z AUTO 17011KT 5000 -RA BR SCT007/// BKN012/// BKN020/// ///TCU 26/25 Q1004
cycle: 15

Station Type Date Time Source
FMEP TAF 2019/12/10 12:00 UTC NOAA

TAF FMEP 101100Z 1012/1021 23008KT 9999 SCT030 BKN060 PROB40
TEMPO 1014/1016 4000 SHRA
BECMG 1016/1018 03005KT

Example: see airport list